Time;durP1;ratioP1;P1;durP2;ratioP2;P2;SDS_P1;SDS_P2;PMS_P1;PMS_P2;Temp;Humidity;BMP_temperature;BMP_pressure;BME280_temperature;BME280_humidity;BME280_pressure;Samples;Min_cycle;Max_cycle;Signal;HPM_P1;HPM_P2
2021/06/16 00:00:37;;;;;;;20.90;11.05;;;;;;;21.29;65.96;100323.73;1783928;79;21341;-82
2021/06/16 00:03:03;;;;;;;19.40;11.15;;;;;;;21.23;66.92;100328.12;1793099;79;20945;-82
2021/06/16 00:05:29;;;;;;;21.68;11.60;;;;;;;21.25;66.80;100334.61;1789267;79;21676;-82
2021/06/16 00:07:55;;;;;;;24.60;11.48;;;;;;;21.21;67.60;100332.06;1789722;79;21144;-82
2021/06/16 00:10:28;;;;;;;22.15;11.85;;;;;;;21.21;67.91;100332.06;1785994;79;21152;-82
2021/06/16 00:12:54;;;;;;;22.85;12.40;;;;;;;21.13;69.50;100327.30;1782536;78;21312;-82
2021/06/16 00:15:24;;;;;;;19.98;11.33;;;;;;;21.13;69.47;100335.35;1783742;78;21092;-82
2021/06/16 00:17:50;;;;;;;25.27;11.45;;;;;;;21.10;69.37;100335.80;1784982;79;21209;-83
2021/06/16 00:20:16;;;;;;;20.90;12.07;;;;;;;21.00;70.42;100338.68;1784326;80;21142;-84
2021/06/16 00:22:42;;;;;;;18.45;11.88;;;;;;;20.91;71.47;100340.81;1784814;80;20866;-83
2021/06/16 00:25:08;;;;;;;18.25;11.50;;;;;;;20.85;72.10;100340.34;1785086;80;21001;-84
2021/06/16 00:27:34;;;;;;;21.12;12.63;;;;;;;20.76;73.00;100335.26;1784595;79;21755;-84
2021/06/16 00:30:00;;;;;;;22.90;11.85;;;;;;;20.60;73.74;100346.48;1784499;80;20867;-83
2021/06/16 00:32:25;;;;;;;19.17;12.20;;;;;;;20.61;74.01;100344.12;1784623;79;20992;-83
2021/06/16 00:34:51;;;;;;;20.85;11.40;;;;;;;20.58;74.09;100336.50;1781658;79;21226;-83
2021/06/16 00:37:17;;;;;;;18.57;11.57;;;;;;;20.44;75.36;100337.92;1786829;79;20921;-83
2021/06/16 00:39:43;;;;;;;21.48;12.23;;;;;;;20.54;74.01;100340.65;1777475;79;20904;-83
2021/06/16 00:42:09;;;;;;;20.08;12.20;;;;;;;20.42;74.47;100341.36;1790493;79;20909;-83
2021/06/16 00:44:34;;;;;;;20.82;12.18;;;;;;;20.27;76.23;100346.19;1782644;79;21306;-83
2021/06/16 00:47:01;;;;;;;22.05;12.53;;;;;;;20.22;76.36;100346.02;1759329;79;20830;-83
2021/06/16 00:49:28;;;;;;;20.52;11.40;;;;;;;20.26;76.05;100341.89;1762688;79;21067;-83
2021/06/16 00:51:54;;;;;;;16.82;10.93;;;;;;;20.22;76.02;100336.64;1763365;80;21051;-83
2021/06/16 00:54:20;;;;;;;22.00;11.55;;;;;;;20.05;78.05;100336.31;1773385;80;20901;-81
2021/06/16 00:56:45;;;;;;;21.12;11.33;;;;;;;19.84;79.48;100341.45;1775269;80;21071;-81
2021/06/16 00:59:11;;;;;;;19.42;11.48;;;;;;;19.80;80.00;100336.23;1746167;80;20951;-81
2021/06/16 01:01:42;;;;;;;16.05;10.70;;;;;;;19.94;78.38;100333.79;1742508;80;20895;-80
2021/06/16 01:04:20;;;;;;;18.98;11.57;;;;;;;19.88;79.61;100338.66;1770675;80;21102;-81
2021/06/16 01:06:51;;;;;;;21.52;12.00;;;;;;;19.91;78.66;100326.17;1773805;80;21106;-81
2021/06/16 01:09:23;;;;;;;18.92;11.95;;;;;;;19.85;79.67;100324.34;1772113;80;21143;-82
2021/06/16 01:12:24;;;;;;;20.10;12.03;;;;;;;19.60;81.32;100327.70;1765199;80;21183;-81
2021/06/16 01:15:10;;;;;;;20.55;11.50;;;;;;;19.68;80.18;100327.46;1768356;80;21088;-82
2021/06/16 01:17:48;;;;;;;18.98;11.68;;;;;;;19.71;80.00;100331.06;1768620;80;21161;-80
2021/06/16 01:20:30;;;;;;;19.17;11.53;;;;;;;19.69;80.45;100333.13;1765164;78;21054;-80
2021/06/16 01:23:11;;;;;;;21.17;11.68;;;;;;;19.63;81.09;100332.64;1766548;80;21191;-80
2021/06/16 01:26:06;;;;;;;20.23;12.07;;;;;;;19.62;80.39;100336.34;1770149;80;20971;-80
2021/06/16 01:28:40;;;;;;;19.52;10.88;;;;;;;19.52;80.97;100334.12;1769157;80;21536;-80
2021/06/16 01:31:08;;;;;;;20.55;10.93;;;;;;;19.43;81.29;100337.24;1762345;80;21122;-81
2021/06/16 01:33:33;;;;;;;;;;;;;;;19.37;81.48;100332.20;1771591;79;21784;-80
2021/06/16 01:35:59;;;;;;;17.95;11.25;;;;;;;19.38;80.80;100342.70;1773914;79;21149;-80
2021/06/16 01:38:25;;;;;;;21.95;10.98;;;;;;;19.38;80.10;100346.72;1783183;79;20941;-81
2021/06/16 01:40:53;;;;;;;16.90;10.58;;;;;;;19.35;79.62;100338.29;1782928;79;20969;-81
2021/06/16 01:43:19;;;;;;;16.87;10.43;;;;;;;19.41;78.94;100346.02;1786416;79;21086;-81
2021/06/16 01:45:47;;;;;;;19.52;9.55;;;;;;;19.29;79.05;100354.66;1765399;79;20989;-80
2021/06/16 01:48:16;;;;;;;13.72;8.95;;;;;;;19.19;78.86;100356.44;1778918;79;21959;-80
2021/06/16 01:50:43;;;;;;;16.37;9.53;;;;;;;19.14;78.00;100346.03;1762601;79;21712;-80
2021/06/16 01:53:08;;;;;;;13.05;8.53;;;;;;;19.12;78.08;100350.78;1778369;79;21002;-80
2021/06/16 01:55:34;;;;;;;15.68;8.68;;;;;;;19.26;76.74;100351.59;1794893;79;20905;-80
2021/06/16 01:58:00;;;;;;;13.95;8.08;;;;;;;19.30;75.51;100344.27;1781015;79;21086;-81
2021/06/16 02:00:26;;;;;;;13.93;7.97;;;;;;;19.14;74.87;100338.00;1789832;79;20966;-81
2021/06/16 02:02:53;;;;;;;14.25;8.00;;;;;;;19.13;74.83;100343.07;1775924;79;21068;-80
2021/06/16 02:05:19;;;;;;;12.80;7.67;;;;;;;19.04;74.20;100346.99;1721716;81;21135;-81
2021/06/16 02:08:00;;;;;;;15.13;7.28;;;;;;;18.89;74.26;100344.52;1717613;81;20874;-82
2021/06/16 02:10:29;;;;;;;14.10;7.40;;;;;;;18.89;73.80;100352.02;1699061;82;21011;-81
2021/06/16 02:12:57;;;;;;;13.90;6.78;;;;;;;18.88;73.28;100359.75;1712549;83;21129;-82
2021/06/16 02:15:24;;;;;;;9.55;5.85;;;;;;;18.85;73.22;100353.48;1707745;83;21084;-82
2021/06/16 02:17:51;;;;;;;;;;;;;;;18.91;73.01;100363.36;1692642;83;21018;-82
2021/06/16 02:20:23;;;;;;;11.78;6.65;;;;;;;18.73;73.75;100372.47;1708629;83;20233;-83
2021/06/16 02:22:49;;;;;;;11.97;6.55;;;;;;;18.79;74.03;100377.01;1709955;83;21059;-81
2021/06/16 02:25:16;;;;;;;13.60;6.20;;;;;;;18.85;73.79;100381.58;1696883;83;21879;-83
2021/06/16 02:27:42;;;;;;;10.45;6.40;;;;;;;18.83;73.25;100381.75;1712543;83;21071;-83
2021/06/16 02:30:08;;;;;;;11.78;5.42;;;;;;;18.78;72.81;100388.73;1711876;83;20982;-82
2021/06/16 02:32:34;;;;;;;11.93;5.03;;;;;;;18.72;70.97;100389.55;1704127;83;20987;-82
2021/06/16 02:35:00;;;;;;;9.73;5.08;;;;;;;18.70;69.70;100385.73;1705309;83;21671;-82
2021/06/16 02:37:26;;;;;;;8.90;4.70;;;;;;;18.59;68.94;100385.81;1700278;83;21077;-82
2021/06/16 02:39:55;;;;;;;7.90;4.45;;;;;;;18.62;68.39;100389.42;1704692;83;20920;-83
2021/06/16 02:42:21;;;;;;;8.40;4.30;;;;;;;18.62;67.97;100386.75;1712189;83;21307;-82
2021/06/16 02:44:48;;;;;;;9.63;4.60;;;;;;;18.61;67.79;100394.48;1713653;83;21155;-83
2021/06/16 02:47:14;;;;;;;7.50;4.60;;;;;;;18.73;67.79;100404.58;1713685;83;21118;-82
2021/06/16 02:49:52;;;;;;;10.32;4.60;;;;;;;18.61;67.46;100405.67;1713112;83;21162;-82
2021/06/16 02:52:18;;;;;;;8.85;4.70;;;;;;;18.63;67.62;100403.13;1711798;83;21039;-82
2021/06/16 02:54:46;;;;;;;8.25;4.20;;;;;;;18.67;67.59;100400.85;1711278;83;21356;-81
2021/06/16 02:57:14;;;;;;;7.75;4.47;;;;;;;18.66;67.38;100414.75;1712794;83;21012;-82
2021/06/16 02:59:40;;;;;;;10.10;4.42;;;;;;;18.57;67.66;100416.48;1711920;83;21154;-82
2021/06/16 03:02:06;;;;;;;10.18;4.53;;;;;;;18.56;68.04;100420.99;1709348;83;21435;-82
2021/06/16 03:04:31;;;;;;;10.15;4.67;;;;;;;18.59;68.43;100420.59;1705115;83;20870;-82
2021/06/16 03:06:57;;;;;;;9.58;4.78;;;;;;;18.54;68.97;100416.37;1709835;83;20923;-82
2021/06/16 03:09:23;;;;;;;12.10;5.10;;;;;;;18.53;69.34;100410.70;1707295;83;20888;-82
2021/06/16 03:11:51;;;;;;;8.53;4.85;;;;;;;18.43;69.84;100412.95;1709952;83;21061;-81
2021/06/16 03:14:23;;;;;;;7.47;4.45;;;;;;;18.51;69.41;100420.78;1707109;83;21006;-83
2021/06/16 03:16:49;;;;;;;7.85;4.25;;;;;;;18.53;68.44;100420.06;1708634;83;21079;-82
2021/06/16 03:19:14;;;;;;;8.50;4.55;;;;;;;18.49;68.23;100420.17;1712642;83;20915;-82
2021/06/16 03:21:41;;;;;;;7.65;4.12;;;;;;;18.51;67.86;100427.47;1711311;83;20924;-82
2021/06/16 03:24:08;;;;;;;8.43;4.00;;;;;;;18.47;67.57;100427.55;1687344;83;21093;-82
2021/06/16 03:26:34;;;;;;;10.88;4.10;;;;;;;18.47;67.71;100428.89;1686906;82;21733;-82
2021/06/16 03:29:00;;;;;;;8.38;3.90;;;;;;;18.47;67.55;100430.23;1681082;83;21206;-83
2021/06/16 03:31:25;;;;;;;9.55;4.80;;;;;;;18.53;67.42;100431.28;1714820;83;20984;-83
2021/06/16 03:33:51;;;;;;;9.65;4.00;;;;;;;18.43;67.82;100433.02;1712713;83;21108;-82
2021/06/16 03:36:17;;;;;;;8.28;4.22;;;;;;;18.44;67.66;100435.48;1701392;83;21203;-82
2021/06/16 03:38:43;;;;;;;7.20;3.77;;;;;;;18.47;67.17;100435.58;1713746;83;21109;-81
2021/06/16 03:41:11;;;;;;;7.67;3.75;;;;;;;18.47;67.25;100440.92;1703029;83;20963;-83
2021/06/16 03:43:37;;;;;;;7.25;3.83;;;;;;;18.45;66.99;100443.80;1708094;82;21066;-83
2021/06/16 03:46:05;;;;;;;8.30;3.80;;;;;;;18.51;66.39;100442.18;1708629;83;20987;-82
2021/06/16 03:48:31;;;;;;;7.20;3.35;;;;;;;18.57;66.07;100456.08;1712209;83;21344;-83
2021/06/16 03:50:57;;;;;;;6.10;3.35;;;;;;;18.61;65.56;100453.33;1711533;83;21133;-81
2021/06/16 03:53:23;;;;;;;7.67;3.10;;;;;;;18.59;65.08;100454.02;1701041;83;20889;-83
2021/06/16 03:55:49;;;;;;;8.20;2.95;;;;;;;18.57;64.53;100450.73;1706751;83;20880;-83
2021/06/16 03:58:17;;;;;;;7.35;2.75;;;;;;;18.63;64.14;100453.94;1702581;83;21271;-83
2021/06/16 04:00:43;;;;;;;5.17;3.00;;;;;;;18.63;63.88;100458.48;1702414;83;21112;-83
2021/06/16 04:03:12;;;;;;;5.95;2.52;;;;;;;18.60;63.92;100452.20;1708530;83;21216;-82
2021/06/16 04:05:40;;;;;;;5.30;2.87;;;;;;;18.60;63.51;100457.02;1713136;83;21026;-83
2021/06/16 04:08:06;;;;;;;8.55;3.00;;;;;;;18.52;63.82;100461.72;1707164;83;21011;-83
2021/06/16 04:10:32;;;;;;;6.83;2.70;;;;;;;18.59;63.78;100468.73;1712577;83;21035;-78
2021/06/16 04:12:58;;;;;;;5.00;2.40;;;;;;;18.56;63.65;100473.67;1712446;83;21042;-81
2021/06/16 04:15:24;;;;;;;5.40;2.80;;;;;;;18.51;63.41;100476.95;1705815;83;21140;-81
2021/06/16 04:17:50;;;;;;;9.65;2.62;;;;;;;18.48;63.37;100481.36;1698063;83;21142;-81
2021/06/16 04:20:16;;;;;;;7.37;2.60;;;;;;;18.51;63.50;100483.63;1710117;83;20893;-81
2021/06/16 04:22:42;;;;;;;6.17;2.40;;;;;;;18.50;63.26;100484.65;1708582;83;21122;-81
2021/06/16 04:25:09;;;;;;;6.60;2.77;;;;;;;18.61;62.85;100488.10;1714136;83;21087;-81
2021/06/16 04:27:35;;;;;;;4.62;2.17;;;;;;;18.34;63.53;100496.52;1713593;83;21269;-81
2021/06/16 04:30:04;;;;;;;7.72;2.50;;;;;;;18.35;63.70;100496.00;1710231;83;21002;-81
2021/06/16 04:32:30;;;;;;;8.58;2.45;;;;;;;18.41;63.44;100487.18;1712638;83;21024;-82
2021/06/16 04:34:56;;;;;;;4.83;2.37;;;;;;;18.38;63.47;100485.75;1713817;83;20920;-79
2021/06/16 04:37:21;;;;;;;6.35;2.50;;;;;;;18.40;63.66;100488.23;1713700;83;21203;-80
2021/06/16 04:39:47;;;;;;;7.97;2.60;;;;;;;18.39;63.69;100482.55;1708994;83;21079;-81
2021/06/16 04:42:13;;;;;;;5.40;2.62;;;;;;;18.44;63.68;100481.44;1708672;83;20913;-78
2021/06/16 04:44:39;;;;;;;4.90;2.30;;;;;;;18.46;63.81;100482.08;1712536;83;21073;-80
2021/06/16 04:47:05;;;;;;;4.25;2.22;;;;;;;18.48;63.68;100472.81;1713117;83;20907;-82
2021/06/16 04:49:33;;;;;;;9.30;2.52;;;;;;;18.37;64.06;100484.61;1702671;83;21019;-83
2021/06/16 04:51:58;;;;;;;5.65;2.60;;;;;;;18.41;64.25;100479.16;1707979;83;21225;-82
2021/06/16 04:54:24;;;;;;;8.70;2.45;;;;;;;18.42;64.14;100478.95;1711973;83;20963;-78
2021/06/16 04:56:50;;;;;;;5.90;2.50;;;;;;;18.52;64.00;100471.08;1709546;83;20932;-82
2021/06/16 04:59:15;;;;;;;6.08;2.20;;;;;;;18.63;63.59;100474.00;1713003;83;21140;-78
2021/06/16 05:01:41;;;;;;;6.35;2.30;;;;;;;18.73;63.28;100470.13;1707801;83;20988;-83
2021/06/16 05:04:07;;;;;;;5.90;2.30;;;;;;;18.80;63.18;100476.33;1712180;83;21237;-81
2021/06/16 05:06:33;;;;;;;7.00;2.65;;;;;;;18.77;63.02;100472.72;1714729;83;20975;-79
2021/06/16 05:08:58;;;;;;;6.33;2.33;;;;;;;18.91;62.77;100474.41;1710773;83;20955;-78
2021/06/16 05:11:24;;;;;;;4.40;2.10;;;;;;;18.90;62.60;100472.75;1711401;83;21595;-80
2021/06/16 05:13:50;;;;;;;7.67;2.33;;;;;;;19.03;62.64;100479.16;1716126;83;21105;-80
2021/06/16 05:16:16;;;;;;;6.45;2.60;;;;;;;18.96;62.71;100483.98;1718589;83;22030;-79
2021/06/16 05:18:44;;;;;;;6.58;2.50;;;;;;;19.04;62.41;100490.19;1716050;83;21033;-79
2021/06/16 05:21:09;;;;;;;4.12;2.05;;;;;;;19.12;62.29;100485.97;1711792;83;21466;-78
2021/06/16 05:23:35;;;;;;;6.05;2.40;;;;;;;19.25;61.76;100484.66;1714611;81;21075;-79
2021/06/16 05:26:01;;;;;;;5.95;2.58;;;;;;;19.28;61.74;100483.40;1717570;82;21082;-80
2021/06/16 05:28:26;;;;;;;7.10;2.62;;;;;;;19.27;61.87;100489.28;1720827;81;21914;-79
2021/06/16 05:30:52;;;;;;;5.50;2.30;;;;;;;19.37;61.72;100483.51;1718398;81;21388;-81
2021/06/16 05:33:19;;;;;;;4.65;2.05;;;;;;;19.46;61.53;100484.13;1724905;82;20878;-83
2021/06/16 05:35:44;;;;;;;6.23;2.20;;;;;;;19.42;61.85;100485.56;1723837;82;21625;-82
2021/06/16 05:38:10;;;;;;;5.70;2.87;;;;;;;19.50;61.73;100478.16;1774032;80;20912;-82
2021/06/16 05:40:36;;;;;;;8.28;2.22;;;;;;;19.57;61.68;100486.18;1771054;79;21036;-81
2021/06/16 05:43:02;;;;;;;6.60;2.75;;;;;;;19.61;61.65;100486.08;1770026;79;20963;-82
2021/06/16 05:45:28;;;;;;;5.62;2.40;;;;;;;19.58;61.64;100495.88;1787535;78;21334;-80
2021/06/16 05:47:54;;;;;;;5.83;2.30;;;;;;;19.62;61.39;100497.09;1766879;80;20866;-79
2021/06/16 05:50:20;;;;;;;7.50;2.25;;;;;;;19.73;61.31;100499.16;1769744;78;20892;-78
2021/06/16 05:52:45;;;;;;;6.85;2.60;;;;;;;19.81;61.20;100505.34;1782977;79;21110;-79
2021/06/16 05:55:12;;;;;;;5.83;2.20;;;;;;;19.79;61.36;100499.38;1781570;79;20911;-79
2021/06/16 05:57:40;;;;;;;6.33;2.40;;;;;;;19.88;61.17;100504.83;1784066;78;21040;-79
2021/06/16 06:00:07;;;;;;;6.37;2.60;;;;;;;19.90;61.37;100508.96;1724303;81;20957;-79
2021/06/16 06:02:33;;;;;;;6.90;2.52;;;;;;;19.91;61.14;100505.76;1749203;81;26923;-78
2021/06/16 06:04:59;;;;;;;7.37;2.60;;;;;;;20.00;61.14;100507.18;1748671;81;21084;-79
2021/06/16 06:07:25;;;;;;;6.30;2.42;;;;;;;20.09;61.00;100503.77;1754488;80;21080;-79
2021/06/16 06:09:50;;;;;;;10.72;3.00;;;;;;;20.08;60.71;100504.27;1749480;81;20969;-79
2021/06/16 06:12:16;;;;;;;6.30;2.33;;;;;;;20.14;60.24;100507.97;1760223;80;20905;-78
2021/06/16 06:14:42;;;;;;;6.00;2.27;;;;;;;20.16;60.31;100500.53;1749798;81;20890;-80
2021/06/16 06:17:08;;;;;;;8.08;2.50;;;;;;;20.31;59.93;100506.19;1749005;81;21088;-78
2021/06/16 06:19:34;;;;;;;7.17;2.20;;;;;;;20.41;59.73;100514.06;1755309;81;20885;-80
2021/06/16 06:22:00;;;;;;;7.12;2.37;;;;;;;20.42;59.72;100507.67;1745183;81;20918;-80
2021/06/16 06:24:25;;;;;;;5.35;2.27;;;;;;;20.36;59.91;100508.52;1759812;81;20894;-78
2021/06/16 06:26:51;;;;;;;6.00;2.15;;;;;;;20.43;60.23;100505.30;1748343;81;21419;-80
2021/06/16 06:29:17;;;;;;;7.33;2.27;;;;;;;20.50;60.13;100507.95;1755322;80;22013;-79
2021/06/16 06:31:43;;;;;;;6.08;2.40;;;;;;;20.54;60.27;100515.05;1748087;81;20890;-77
2021/06/16 06:34:09;;;;;;;7.72;2.40;;;;;;;20.60;59.63;100512.35;1768154;79;22001;-78
2021/06/16 06:36:34;;;;;;;7.28;2.55;;;;;;;20.70;59.44;100514.59;1773657;80;20840;-79
2021/06/16 06:39:00;;;;;;;6.20;2.35;;;;;;;20.78;58.89;100511.66;1765226;80;20935;-80
2021/06/16 06:41:26;;;;;;;9.15;2.47;;;;;;;20.85;59.03;100511.64;1769230;80;21147;-79
2021/06/16 06:43:52;;;;;;;7.20;2.55;;;;;;;20.84;59.89;100507.83;1764233;80;20979;-79
2021/06/16 06:46:18;;;;;;;5.80;2.33;;;;;;;20.76;60.11;100511.06;1769330;80;20904;-78
2021/06/16 06:48:44;;;;;;;6.78;2.05;;;;;;;20.78;59.70;100522.39;1763188;80;21127;-78
2021/06/16 06:51:09;;;;;;;6.28;2.42;;;;;;;20.74;59.70;100519.85;1768467;80;21319;-78
2021/06/16 06:53:35;;;;;;;7.42;2.17;;;;;;;20.85;59.46;100514.83;1764428;80;21070;-78
2021/06/16 06:56:02;;;;;;;8.93;2.37;;;;;;;20.83;60.01;100521.75;1768398;80;21029;-81
2021/06/16 06:58:29;;;;;;;6.83;2.42;;;;;;;21.01;59.31;100521.04;1762429;80;21014;-81
2021/06/16 07:00:54;;;;;;;6.90;2.30;;;;;;;21.00;59.47;100520.73;1772422;78;21040;-82
2021/06/16 07:03:20;;;;;;;5.05;2.00;;;;;;;21.10;59.37;100521.09;1777227;79;21718;-80
2021/06/16 07:05:46;;;;;;;5.80;2.27;;;;;;;21.11;59.01;100521.37;1767622;80;21192;-79
2021/06/16 07:08:12;;;;;;;5.90;2.45;;;;;;;21.16;59.01;100522.91;1763142;80;20896;-80
2021/06/16 07:10:38;;;;;;;7.12;2.60;;;;;;;21.20;58.55;100526.50;1774551;80;20923;-82
2021/06/16 07:13:04;;;;;;;5.12;2.33;;;;;;;21.25;58.35;100523.44;1770586;80;21979;-82
2021/06/16 07:15:32;;;;;;;6.40;1.85;;;;;;;21.10;58.43;100526.95;1769423;80;21762;-81
2021/06/16 07:17:58;;;;;;;9.20;2.00;;;;;;;21.15;58.42;100525.28;1791503;78;21014;-80
2021/06/16 07:20:24;;;;;;;5.58;2.60;;;;;;;21.14;58.21;100516.91;1810609;78;21626;-80
2021/06/16 07:22:50;;;;;;;5.58;2.50;;;;;;;21.23;57.70;100515.33;1803901;78;20999;-79
2021/06/16 07:25:16;;;;;;;5.92;2.12;;;;;;;21.23;57.71;100517.48;1769029;80;20985;-80
2021/06/16 07:27:45;;;;;;;6.47;2.47;;;;;;;21.37;57.43;100518.73;1766384;80;21519;-78
2021/06/16 07:30:12;;;;;;;6.15;2.30;;;;;;;21.30;56.08;100519.61;1762892;80;22090;-79
2021/06/16 07:32:39;;;;;;;10.80;2.30;;;;;;;21.28;56.46;100518.17;1773754;80;21067;-81
2021/06/16 07:35:05;;;;;;;6.95;2.47;;;;;;;21.28;56.96;100523.54;1768086;79;21119;-79
2021/06/16 07:37:31;;;;;;;6.20;2.40;;;;;;;21.41;56.45;100520.77;1782569;80;21161;-80
2021/06/16 07:39:57;;;;;;;6.53;2.22;;;;;;;21.50;56.41;100510.58;1784642;79;21653;-82
2021/06/16 07:42:23;;;;;;;4.42;2.00;;;;;;;21.40;56.56;100516.95;1784717;79;21021;-81
2021/06/16 07:44:49;;;;;;;5.95;2.33;;;;;;;21.47;55.90;100514.52;1782727;78;20890;-79
2021/06/16 07:47:15;;;;;;;5.10;2.25;;;;;;;21.59;56.00;100515.17;1782987;80;21075;-80
2021/06/16 07:49:41;;;;;;;7.87;2.65;;;;;;;21.67;56.38;100506.81;1782683;80;20940;-79
2021/06/16 07:52:06;;;;;;;7.25;2.33;;;;;;;21.75;56.60;100513.27;1772679;80;20906;-81
2021/06/16 07:54:32;;;;;;;5.17;2.40;;;;;;;21.84;56.40;100517.30;1788375;78;21014;-79
2021/06/16 07:56:58;;;;;;;10.08;2.60;;;;;;;21.88;56.61;100517.70;1781907;80;22180;-79
2021/06/16 07:59:24;;;;;;;7.25;2.72;;;;;;;21.98;56.21;100517.17;1783479;78;21063;-81
2021/06/16 08:01:50;;;;;;;8.38;2.72;;;;;;;21.96;55.54;100511.20;1786477;79;20869;-81
2021/06/16 08:04:16;;;;;;;6.65;2.27;;;;;;;22.04;55.74;100517.09;1788435;79;20968;-81
2021/06/16 08:06:42;;;;;;;6.37;2.47;;;;;;;22.13;55.26;100516.83;1785344;79;21134;-81
2021/06/16 08:09:07;;;;;;;6.33;2.35;;;;;;;22.16;55.42;100517.19;1780856;79;20893;-78
2021/06/16 08:11:33;;;;;;;4.75;2.30;;;;;;;22.19;54.85;100516.73;1779049;78;21060;-78
2021/06/16 08:13:59;;;;;;;9.83;2.83;;;;;;;22.23;54.91;100523.33;1776318;79;21179;-78
2021/06/16 08:16:25;;;;;;;9.13;2.80;;;;;;;22.37;55.17;100520.50;1750344;80;21159;-78
2021/06/16 08:18:51;;;;;;;6.75;2.50;;;;;;;22.39;55.45;100521.11;1782736;78;20905;-79
2021/06/16 08:21:18;;;;;;;5.40;2.25;;;;;;;22.46;55.35;100524.53;1782298;78;21742;-78
2021/06/16 08:23:44;;;;;;;7.00;2.40;;;;;;;22.51;55.25;100532.77;1782543;79;21092;-78
2021/06/16 08:26:10;;;;;;;5.03;2.50;;;;;;;22.64;54.32;100530.42;1781393;79;21176;-77
2021/06/16 08:28:37;;;;;;;5.08;2.33;;;;;;;22.75;54.47;100533.69;1781886;79;21115;-76
2021/06/16 08:31:02;;;;;;;5.40;2.22;;;;;;;22.80;53.78;100528.97;1778564;78;21293;-77
2021/06/16 08:33:28;;;;;;;5.40;2.27;;;;;;;22.74;53.06;100533.91;1781496;80;20895;-77
2021/06/16 08:35:56;;;;;;;6.55;2.47;;;;;;;22.65;52.67;100539.31;1768657;80;20912;-78
2021/06/16 08:38:21;;;;;;;7.03;2.30;;;;;;;22.85;53.04;100541.21;1787141;77;20998;-78
2021/06/16 08:40:48;;;;;;;7.45;2.50;;;;;;;22.88;53.09;100539.41;1786594;78;20980;-78
2021/06/16 08:43:14;;;;;;;7.35;2.95;;;;;;;22.90;53.24;100535.98;1777724;79;21099;-76
2021/06/16 08:45:43;;;;;;;9.28;2.60;;;;;;;23.00;52.89;100535.95;1783029;79;21720;-77
2021/06/16 08:48:09;;;;;;;6.40;2.45;;;;;;;23.10;52.88;100540.28;1787095;79;21813;-76
2021/06/16 08:50:36;;;;;;;8.20;2.30;;;;;;;23.01;52.86;100548.36;1782547;79;21035;-78
2021/06/16 08:53:03;;;;;;;6.75;2.58;;;;;;;23.12;52.81;100544.39;1790177;79;21040;-79
2021/06/16 08:55:28;;;;;;;8.63;2.40;;;;;;;23.23;52.88;100540.09;1775530;79;21092;-79
2021/06/16 08:57:54;;;;;;;7.67;2.92;;;;;;;23.09;52.76;100535.96;1762697;80;21608;-79
2021/06/16 09:00:21;;;;;;;7.40;2.60;;;;;;;23.11;52.60;100545.97;1767732;80;20995;-77
2021/06/16 09:02:47;;;;;;;9.88;2.75;;;;;;;23.15;52.38;100553.06;1769847;80;21024;-77
2021/06/16 09:05:13;;;;;;;8.30;2.67;;;;;;;23.23;52.41;100552.22;1774974;80;21018;-76
2021/06/16 09:07:41;;;;;;;8.23;2.93;;;;;;;23.22;52.37;100553.27;1773264;79;21883;-78
2021/06/16 09:10:16;;;;;;;6.33;2.47;;;;;;;23.30;52.42;100558.84;1798046;78;21101;-79
2021/06/16 09:12:57;;;;;;;9.98;2.62;;;;;;;23.30;52.51;100556.99;1804983;78;21053;-78
2021/06/16 09:15:28;;;;;;;5.33;2.30;;;;;;;23.37;51.87;100556.04;1807585;78;21794;-76
2021/06/16 09:18:12;;;;;;;5.92;2.50;;;;;;;23.47;51.93;100559.00;1809527;78;21053;-76
2021/06/16 09:20:42;;;;;;;7.60;2.60;;;;;;;23.46;51.48;100562.73;1809451;78;20973;-79
2021/06/16 09:23:24;;;;;;;8.00;2.33;;;;;;;23.45;50.95;100559.77;1777377;78;21037;-77
2021/06/16 09:26:06;;;;;;;7.97;2.50;;;;;;;23.52;50.95;100559.12;1761954;79;21112;-77
2021/06/16 09:28:41;;;;;;;5.03;2.02;;;;;;;23.66;50.40;100557.03;1738276;80;21105;-76
2021/06/16 09:31:08;;;;;;;7.87;2.30;;;;;;;23.63;49.98;100556.98;1784003;80;21024;-76
2021/06/16 09:33:34;;;;;;;8.70;2.50;;;;;;;23.61;49.88;100554.22;1782428;80;21067;-76
2021/06/16 09:36:00;;;;;;;6.47;2.50;;;;;;;23.65;49.59;100561.61;1784772;80;20865;-77
2021/06/16 09:38:31;;;;;;;5.90;2.72;;;;;;;23.77;49.50;100551.34;1782618;80;21325;-78
2021/06/16 09:40:59;;;;;;;7.62;2.70;;;;;;;23.77;49.50;100551.34;1783601;80;21029;-77
2021/06/16 09:43:27;;;;;;;6.22;2.70;;;;;;;23.75;49.63;100556.98;1780661;80;21701;-76
2021/06/16 09:46:02;;;;;;;7.03;3.25;;;;;;;23.81;49.46;100560.62;1784223;80;21243;-77
2021/06/16 09:48:33;;;;;;;6.65;3.10;;;;;;;23.78;49.60;100562.44;1772068;80;21004;-78
2021/06/16 09:51:13;;;;;;;6.87;3.17;;;;;;;23.83;49.25;100559.34;1764675;80;21048;-78
2021/06/16 09:54:13;;;;;;;4.85;2.58;;;;;;;23.91;49.02;100556.86;1771781;80;21095;-76
2021/06/16 09:56:59;;;;;;;6.95;2.55;;;;;;;23.93;48.86;100565.53;1765088;80;20983;-76
2021/06/16 09:59:42;;;;;;;6.60;2.67;;;;;;;23.95;48.50;100562.06;1772609;80;20979;-79
2021/06/16 10:02:17;;;;;;;8.85;2.70;;;;;;;24.06;48.44;100559.60;1763456;79;21060;-76
2021/06/16 10:04:45;;;;;;;5.78;2.83;;;;;;;24.06;48.81;100558.25;1748504;80;21064;-76
2021/06/16 10:18:02;;;;;;;8.50;2.90;;;;;;;24.15;49.21;100556.84;1704100;79;21048;-78
2021/06/16 10:20:28;;;;;;;9.88;2.83;;;;;;;24.19;48.95;100561.52;1716399;82;21063;-78
2021/06/16 10:22:54;;;;;;;7.15;2.65;;;;;;;24.28;49.33;100563.31;1717793;82;26546;-76
2021/06/16 10:25:20;;;;;;;8.30;3.20;;;;;;;24.35;48.94;100565.37;1752016;79;21077;-77
2021/06/16 10:27:49;;;;;;;8.58;3.00;;;;;;;24.38;48.70;100567.59;1780962;77;21066;-78
2021/06/16 10:30:19;;;;;;;9.38;3.20;;;;;;;24.49;48.68;100562.41;1787962;78;22909;-76
2021/06/16 10:32:47;;;;;;;6.80;2.90;;;;;;;24.39;48.74;100557.60;1773103;78;21091;-77
2021/06/16 10:35:14;;;;;;;9.68;3.15;;;;;;;24.51;48.79;100558.94;1762303;80;21027;-78
2021/06/16 10:37:42;;;;;;;;;;;;;;;24.49;48.87;100558.36;1774081;79;21822;-76
2021/06/16 10:40:25;;;;;;;8.05;3.30;;;;;;;24.54;48.93;100557.92;1789626;77;20457;-76
2021/06/16 10:43:10;;;;;;;8.68;3.75;;;;;;;24.66;49.05;100552.53;1740673;82;21033;-77
2021/06/16 10:45:41;;;;;;;7.62;3.47;;;;;;;24.66;48.69;100557.93;1740680;82;21584;-77
2021/06/16 10:48:08;;;;;;;9.78;3.30;;;;;;;24.63;48.71;100555.70;1740985;82;21026;-77
2021/06/16 10:50:53;;;;;;;7.25;3.37;;;;;;;24.69;48.59;100549.34;1743619;82;21171;-79
2021/06/16 10:53:25;;;;;;;6.45;3.10;;;;;;;24.82;48.24;100548.77;1740566;80;21180;-79
2021/06/16 10:55:59;;;;;;;8.73;3.60;;;;;;;24.88;47.97;100549.97;1787920;78;21057;-78
2021/06/16 10:58:33;;;;;;;7.85;3.30;;;;;;;24.85;47.76;100552.34;1813578;78;21069;-77
2021/06/16 11:01:17;;;;;;;8.40;3.22;;;;;;;24.92;47.78;100548.95;1817797;78;21053;-78
2021/06/16 11:03:57;;;;;;;6.53;3.22;;;;;;;25.03;47.95;100548.09;1810668;78;21173;-78
2021/06/16 11:06:38;;;;;;;6.53;3.35;;;;;;;25.11;47.22;100546.04;1815703;78;20938;-79
2021/06/16 11:09:08;;;;;;;6.92;3.90;;;;;;;25.22;47.35;100546.53;1821534;76;21053;-79
2021/06/16 11:12:01;;;;;;;6.80;3.70;;;;;;;25.37;47.35;100546.82;1817743;78;21045;-81
2021/06/16 11:14:39;;;;;;;9.15;3.87;;;;;;;25.46;46.09;100550.46;1808503;78;21007;-80
2021/06/16 11:17:10;;;;;;;6.42;3.42;;;;;;;25.60;46.32;100543.66;1809591;78;21082;-78
2021/06/16 11:19:40;;;;;;;7.00;3.10;;;;;;;25.65;46.23;100549.13;1817759;76;21687;-80
2021/06/16 11:22:17;;;;;;;8.05;3.25;;;;;;;25.66;46.14;100546.72;1804578;76;21526;-79
2021/06/16 11:25:15;;;;;;;10.30;3.62;;;;;;;25.72;45.82;100551.14;1807543;78;21072;-77
2021/06/16 11:28:10;;;;;;;7.95;3.65;;;;;;;25.70;45.90;100539.77;1767131;78;21083;-77
2021/06/16 11:30:57;;;;;;;6.90;3.40;;;;;;;25.80;46.27;100541.25;1756967;79;21151;-77
2021/06/16 11:33:28;;;;;;;6.62;3.47;;;;;;;25.87;45.96;100540.26;1755848;79;21034;-77
2021/06/16 11:36:02;;;;;;;6.92;3.50;;;;;;;25.89;46.38;100536.80;1753447;78;21593;-77
2021/06/16 11:38:35;;;;;;;9.75;3.60;;;;;;;25.91;46.44;100540.87;1769250;78;21088;-77